createdAt,value
2018-11-06T00:00:44.251Z,92.50
2018-11-06T00:03:19.597Z,92.60
2018-11-06T00:05:49.956Z,92.60
2018-11-06T00:08:20.001Z,92.50
2018-11-06T00:10:51.593Z,92.50
2018-11-06T00:13:22.052Z,92.70
2018-11-06T00:15:52.007Z,92.30
2018-11-06T00:18:22.171Z,92.20
2018-11-06T00:20:52.508Z,92.30
2018-11-06T00:23:22.457Z,92.30
2018-11-06T00:25:52.750Z,92.50
2018-11-06T00:28:23.051Z,92.20
2018-11-06T00:30:53.107Z,92.70
2018-11-06T00:33:24.258Z,92.80
2018-11-06T00:35:54.320Z,92.90
2018-11-06T00:38:24.387Z,92.70
2018-11-06T00:40:54.409Z,92.70
2018-11-06T00:43:24.663Z,92.60
2018-11-06T00:45:55.727Z,92.60
2018-11-06T00:48:25.835Z,92.60
2018-11-06T00:50:55.830Z,92.40
2018-11-06T00:53:26.239Z,92.30
2018-11-06T00:55:56.080Z,92.50
2018-11-06T00:58:26.660Z,92.20
2018-11-06T01:00:57.144Z,92.30
2018-11-06T01:03:32.056Z,92.30
2018-11-06T01:06:02.213Z,91.90
2018-11-06T01:08:32.205Z,92.10
2018-11-06T01:11:04.045Z,92.10
2018-11-06T01:13:34.075Z,92.20
2018-11-06T01:16:04.550Z,92.20
2018-11-06T01:18:34.780Z,92.20
2018-11-06T01:21:04.716Z,92.30
2018-11-06T01:23:34.689Z,92.10
2018-11-06T01:26:04.675Z,92.10
2018-11-06T01:28:34.620Z,92.20
2018-11-06T01:31:05.004Z,92.30
2018-11-06T01:33:35.434Z,92.30
2018-11-06T01:36:05.640Z,92.30
2018-11-06T01:38:35.556Z,92.20
2018-11-06T01:41:05.496Z,92.10
2018-11-06T01:43:36.063Z,92.00
2018-11-06T01:46:06.289Z,91.90
2018-11-06T01:48:36.835Z,92.10
2018-11-06T01:51:06.752Z,92.10
2018-11-06T01:53:36.679Z,92.30
2018-11-06T01:56:07.308Z,92.30
2018-11-06T01:58:37.825Z,92.50
2018-11-06T02:01:07.808Z,92.70
2018-11-06T02:03:38.330Z,92.80
2018-11-06T02:06:08.928Z,92.90
2018-11-06T02:08:38.916Z,92.60
2018-11-06T02:11:09.318Z,92.50
2018-11-06T02:13:39.444Z,92.70
2018-11-06T02:16:09.521Z,92.80
2018-11-06T02:18:40.216Z,92.70
2018-11-06T02:21:10.196Z,92.60
2018-11-06T02:23:40.161Z,92.50
2018-11-06T02:26:10.275Z,92.50
2018-11-06T02:28:40.709Z,92.50
2018-11-06T02:31:10.706Z,92.40
2018-11-06T02:33:41.120Z,92.50
2018-11-06T02:36:11.078Z,92.20
2018-11-06T02:38:41.622Z,92.20
2018-11-06T02:41:11.693Z,92.30
2018-11-06T02:43:42.556Z,92.30
2018-11-06T02:46:12.558Z,92.30
2018-11-06T02:48:42.783Z,92.20
2018-11-06T02:51:12.830Z,92.00
2018-11-06T02:53:43.722Z,91.90
2018-11-06T02:56:14.489Z,91.90
2018-11-06T02:58:44.510Z,92.00
2018-11-06T03:01:14.677Z,92.10
2018-11-06T03:03:45.519Z,91.90
2018-11-06T03:06:15.918Z,91.80
2018-11-06T03:08:46.002Z,91.70
2018-11-06T03:11:16.716Z,91.90
2018-11-06T03:13:46.867Z,92.20
2018-11-06T03:16:16.845Z,92.10
2018-11-06T03:18:47.188Z,91.80
2018-11-06T03:21:17.837Z,92.20
2018-11-06T03:23:47.650Z,92.00
2018-11-06T03:26:18.514Z,92.10
2018-11-06T03:28:48.721Z,91.80
2018-11-06T03:31:19.230Z,91.80
2018-11-06T03:33:49.738Z,92.00
2018-11-06T03:36:19.999Z,92.00
2018-11-06T03:38:50.032Z,92.50
2018-11-06T03:41:20.002Z,92.80
2018-11-06T03:43:50.255Z,93.10
2018-11-06T03:46:20.412Z,93.10
2018-11-06T03:48:50.461Z,93.10
2018-11-06T03:51:21.620Z,93.60
2018-11-06T03:53:51.649Z,93.80
2018-11-06T03:56:21.726Z,94.20
2018-11-06T03:58:52.312Z,94.40
2018-11-06T04:01:22.386Z,94.10
2018-11-06T04:03:53.416Z,94.30
2018-11-06T04:06:23.995Z,93.70
2018-11-06T04:08:54.766Z,94.00
2018-11-06T04:11:25.031Z,94.00
2018-11-06T04:13:55.162Z,94.00
2018-11-06T04:16:25.407Z,94.00
2018-11-06T04:18:55.276Z,94.00
2018-11-06T04:21:32.918Z,94.10
2018-11-06T04:24:02.926Z,93.80
2018-11-06T04:26:33.563Z,93.60
2018-11-06T04:29:04.458Z,93.90
2018-11-06T04:31:35.129Z,93.80
2018-11-06T04:34:04.986Z,93.90
2018-11-06T04:36:35.065Z,94.70
2018-11-06T04:39:07.390Z,95.20
2018-11-06T04:41:37.553Z,95.20
2018-11-06T04:44:08.361Z,95.30
2018-11-06T04:46:38.226Z,95.40
2018-11-06T04:49:08.330Z,94.70
2018-11-06T04:51:38.862Z,94.70
2018-11-06T04:54:09.369Z,94.90
2018-11-06T04:56:39.833Z,95.40
2018-11-06T04:59:09.938Z,95.50
2018-11-06T05:01:40.706Z,96.10
2018-11-06T05:04:11.643Z,95.90
2018-11-06T05:06:41.753Z,95.80
2018-11-06T05:09:12.266Z,95.40
2018-11-06T05:11:42.445Z,95.40
2018-11-06T05:14:15.062Z,95.40
2018-11-06T05:16:47.208Z,95.40
2018-11-06T05:19:17.875Z,95.40
2018-11-06T05:21:47.983Z,95.50
2018-11-06T05:24:18.034Z,95.70
2018-11-06T05:26:48.458Z,95.60
2018-11-06T05:29:19.142Z,95.60
2018-11-06T05:31:49.552Z,95.50
2018-11-06T05:34:20.015Z,95.70
2018-11-06T05:36:51.013Z,95.60
2018-11-06T05:39:21.276Z,95.80
2018-11-06T05:41:51.295Z,96.10
2018-11-06T05:44:22.578Z,96.00
2018-11-06T05:46:53.326Z,95.80
2018-11-06T05:49:23.601Z,95.90
2018-11-06T05:51:54.193Z,95.80
2018-11-06T05:54:24.294Z,95.80
2018-11-06T05:56:54.319Z,95.70
2018-11-06T05:59:25.350Z,95.40
2018-11-06T06:01:56.294Z,95.50
2018-11-06T06:04:26.514Z,95.60
2018-11-06T06:06:57.475Z,95.50
2018-11-06T06:09:27.831Z,95.60
2018-11-06T06:11:58.180Z,95.60
2018-11-06T06:14:28.580Z,96.40
2018-11-06T06:16:58.930Z,96.40
2018-11-06T06:19:32.060Z,96.20
2018-11-06T06:22:02.155Z,96.10
2018-11-06T06:24:32.496Z,96.00
2018-11-06T06:27:02.317Z,96.00
2018-11-06T06:29:32.491Z,95.90
2018-11-06T06:32:02.853Z,96.00
2018-11-06T06:34:33.827Z,95.80
2018-11-06T06:37:04.335Z,95.80
2018-11-06T06:39:34.931Z,95.90
2018-11-06T06:42:05.493Z,95.80
2018-11-06T06:44:36.388Z,96.00
2018-11-06T06:47:07.510Z,95.90
2018-11-06T06:49:38.595Z,96.10
2018-11-06T06:52:09.107Z,96.10
2018-11-06T06:54:40.142Z,96.30
2018-11-06T06:57:11.158Z,96.50
2018-11-06T06:59:40.962Z,96.30
2018-11-06T07:02:11.049Z,96.20
2018-11-06T07:04:41.877Z,96.20
2018-11-06T07:07:12.639Z,96.20
2018-11-06T07:09:43.274Z,96.00
2018-11-06T07:12:14.159Z,96.00
2018-11-06T07:14:44.448Z,95.90
2018-11-06T07:17:14.960Z,96.00
2018-11-06T07:19:45.493Z,95.70
2018-11-06T07:22:17.069Z,95.90
2018-11-06T07:24:47.571Z,95.70
2018-11-06T07:27:17.492Z,95.70
2018-11-06T07:29:47.912Z,95.90
2018-11-06T07:32:18.507Z,96.10
2018-11-06T07:34:49.119Z,96.40
2018-11-06T07:37:19.335Z,96.50
2018-11-06T07:39:50.807Z,96.40
2018-11-06T07:42:21.167Z,96.30
2018-11-06T07:44:52.079Z,96.20
2018-11-06T07:47:22.436Z,96.20
2018-11-06T07:49:54.010Z,96.50
2018-11-06T07:52:24.636Z,96.90
2018-11-06T07:54:54.931Z,97.90
2018-11-06T07:57:24.891Z,98.20
2018-11-06T07:59:55.043Z,99.20
2018-11-06T08:02:26.396Z,99.90
2018-11-06T08:04:57.343Z,99.90
2018-11-06T08:07:27.232Z,99.90
2018-11-06T08:09:58.173Z,99.00
2018-11-06T08:12:30.404Z,97.10
2018-11-06T08:15:01.997Z,99.00
2018-11-06T08:17:32.011Z,97.10
2018-11-06T08:20:02.247Z,97.50
2018-11-06T08:22:32.429Z,95.90
2018-11-06T08:25:04.495Z,94.50
2018-11-06T08:27:34.892Z,95.10
2018-11-06T08:30:06.816Z,94.30
2018-11-06T08:32:37.406Z,93.50
2018-11-06T08:35:11.202Z,92.30
2018-11-06T08:37:41.548Z,92.20
2018-11-06T08:40:13.630Z,92.70
2018-11-06T08:42:43.799Z,93.00
2018-11-06T08:45:15.931Z,92.90
2018-11-06T08:47:46.634Z,93.30
2018-11-06T08:50:18.543Z,93.20
2018-11-06T08:52:48.775Z,93.50
2018-11-06T08:55:19.786Z,93.40
2018-11-06T08:57:50.064Z,93.70
2018-11-06T09:00:20.324Z,93.70
2018-11-06T09:02:51.162Z,94.40
2018-11-06T09:05:22.617Z,93.90
2018-11-06T09:07:53.406Z,93.20
2018-11-06T09:10:24.016Z,92.90
2018-11-06T09:12:54.475Z,94.50
2018-11-06T09:15:24.631Z,93.70
2018-11-06T09:17:55.639Z,94.40
2018-11-06T09:20:26.030Z,94.30
2018-11-06T09:22:57.240Z,92.70
2018-11-06T09:25:29.131Z,90.20
2018-11-06T09:27:59.674Z,89.50
2018-11-06T09:30:30.716Z,90.30
2018-11-06T09:33:01.005Z,90.10
2018-11-06T09:35:30.905Z,87.80
2018-11-06T09:38:02.224Z,88.40
2018-11-06T09:43:04.531Z,85.40
2018-11-06T09:45:36.489Z,85.00
2018-11-06T09:48:06.690Z,83.80
2018-11-06T09:50:37.951Z,75.10
2018-11-06T09:53:09.897Z,75.00
2018-11-06T09:55:39.887Z,74.40
2018-11-06T09:58:10.943Z,74.00
2018-11-06T10:00:41.180Z,75.70
2018-11-06T10:03:12.027Z,75.40
2018-11-06T10:05:44.193Z,76.90
2018-11-06T10:08:16.517Z,79.60
2018-11-06T10:10:47.642Z,79.60
2018-11-06T10:13:18.914Z,81.30
2018-11-06T10:15:48.963Z,79.80
2018-11-06T10:18:20.828Z,80.10
2018-11-06T10:20:51.419Z,76.90
2018-11-06T10:23:24.106Z,79.90
2018-11-06T10:25:53.928Z,80.40
2018-11-06T10:28:25.588Z,80.20
2018-11-06T10:30:55.647Z,75.90
2018-11-06T10:33:27.269Z,75.20
2018-11-06T10:35:57.835Z,78.80
2018-11-06T10:38:28.842Z,78.20
2018-11-06T10:41:00.509Z,75.60
2018-11-06T10:43:30.792Z,77.00
2018-11-06T10:46:00.832Z,76.90
2018-11-06T10:48:33.024Z,79.50
2018-11-06T10:51:04.493Z,79.70
2018-11-06T10:53:34.671Z,81.10
2018-11-06T10:56:07.200Z,81.00
2018-11-06T10:58:39.766Z,82.80
2018-11-06T11:01:15.502Z,77.40
2018-11-06T11:03:52.390Z,77.20
2018-11-06T11:06:23.559Z,77.00
2018-11-06T11:08:53.944Z,81.30
2018-11-06T11:11:24.683Z,75.60
2018-11-06T11:13:56.455Z,77.10
2018-11-06T11:16:29.633Z,76.20
2018-11-06T11:19:01.151Z,77.50
2018-11-06T11:21:31.648Z,74.50
2018-11-06T11:24:01.827Z,76.40
2018-11-06T11:26:33.025Z,78.60
2018-11-06T11:29:04.143Z,78.20
2018-11-06T11:31:34.602Z,76.20
2018-11-06T11:34:04.764Z,77.00
2018-11-06T11:36:35.116Z,76.50
2018-11-06T11:39:08.959Z,78.20
2018-11-06T11:41:40.913Z,77.70
2018-11-06T11:44:11.039Z,76.00
2018-11-06T11:46:41.072Z,75.40
2018-11-06T11:49:12.094Z,74.20
2018-11-06T11:51:42.882Z,74.30
2018-11-06T11:54:13.148Z,73.60
2018-11-06T11:56:44.512Z,76.60
2018-11-06T11:59:15.804Z,73.40
2018-11-06T12:01:46.118Z,72.00
2018-11-06T12:04:17.598Z,70.70
2018-11-06T12:06:47.923Z,73.70
2018-11-06T12:09:20.142Z,72.30
2018-11-06T12:11:50.438Z,71.00
2018-11-06T12:14:21.183Z,72.30
2018-11-06T12:16:51.425Z,74.20
2018-11-06T12:19:22.614Z,75.30
2018-11-06T12:21:53.691Z,74.80
2018-11-06T12:24:24.157Z,77.40
2018-11-06T12:26:54.877Z,77.00
2018-11-06T12:29:26.687Z,77.90
2018-11-06T12:31:57.627Z,78.40
2018-11-06T12:34:27.440Z,77.30
2018-11-06T12:36:59.074Z,77.70
2018-11-06T12:39:29.423Z,78.60
2018-11-06T12:41:59.559Z,78.80
2018-11-06T12:44:30.487Z,77.60
2018-11-06T12:47:01.206Z,76.60
2018-11-06T12:49:31.661Z,75.10
2018-11-06T12:52:01.881Z,77.50
2018-11-06T12:54:32.690Z,78.20
2018-11-06T12:57:04.286Z,78.50
2018-11-06T12:59:37.372Z,78.10
2018-11-06T13:02:07.685Z,77.00
2018-11-06T13:04:38.255Z,78.20
2018-11-06T13:07:09.231Z,77.40
2018-11-06T13:09:39.832Z,76.60
2018-11-06T13:12:09.780Z,76.40
2018-11-06T13:14:40.619Z,76.20
2018-11-06T13:17:11.261Z,77.90
2018-11-06T13:19:41.551Z,77.00
2018-11-06T13:22:11.814Z,78.70
2018-11-06T13:24:43.741Z,77.90
2018-11-06T13:27:15.335Z,77.10
2018-11-06T13:29:46.117Z,77.70
2018-11-06T13:32:15.929Z,77.50
2018-11-06T13:34:47.878Z,78.30
2018-11-06T13:37:17.962Z,77.80
2018-11-06T13:39:49.329Z,77.90
2018-11-06T13:42:19.667Z,77.50
2018-11-06T13:44:50.712Z,77.90
2018-11-06T13:47:22.660Z,78.70
2018-11-06T13:49:52.700Z,78.20
2018-11-06T13:52:23.895Z,78.90
2018-11-06T13:54:54.758Z,79.30
2018-11-06T13:57:25.166Z,80.20
2018-11-06T13:59:58.686Z,78.80
2018-11-06T14:02:30.215Z,78.10
2018-11-06T14:05:03.045Z,78.20
2018-11-06T14:07:35.607Z,78.30
2018-11-06T14:10:06.713Z,78.20
2018-11-06T14:12:38.883Z,78.10
2018-11-06T14:15:11.205Z,77.90
2018-11-06T14:17:42.523Z,78.10
2018-11-06T14:20:15.642Z,78.30
2018-11-06T14:22:47.845Z,78.20
2018-11-06T14:25:17.941Z,78.50
2018-11-06T14:27:49.034Z,78.90
2018-11-06T14:30:25.993Z,79.50
2018-11-06T14:32:56.468Z,80.00
2018-11-06T14:35:28.891Z,79.70
2018-11-06T14:37:58.971Z,79.70
2018-11-06T14:40:32.510Z,80.00
2018-11-06T14:43:04.319Z,79.90
2018-11-06T14:45:36.400Z,79.80
2018-11-06T14:48:06.439Z,80.20
2018-11-06T14:50:36.706Z,80.40
2018-11-06T14:53:07.758Z,80.60
2018-11-06T14:55:37.918Z,81.10
2018-11-06T14:58:08.346Z,81.20
2018-11-06T15:00:38.198Z,81.10
2018-11-06T15:03:09.219Z,81.50
2018-11-06T15:05:39.892Z,81.70
2018-11-06T15:08:10.648Z,82.30
2018-11-06T15:10:40.919Z,82.20
2018-11-06T15:13:11.387Z,82.10
2018-11-06T15:15:42.522Z,82.10
2018-11-06T15:18:12.673Z,82.80
2018-11-06T15:20:43.567Z,83.00
2018-11-06T15:23:15.579Z,83.40
2018-11-06T15:25:46.991Z,84.00
2018-11-06T15:28:17.439Z,83.70
2018-11-06T15:30:47.728Z,83.70
2018-11-06T15:33:18.137Z,83.50
2018-11-06T15:35:56.189Z,83.70
2018-11-06T15:38:27.014Z,84.10
2018-11-06T15:40:58.152Z,84.30
2018-11-06T15:43:29.218Z,83.90
2018-11-06T15:46:02.289Z,84.40
2018-11-06T15:48:33.536Z,84.40
2018-11-06T15:51:09.201Z,84.60
2018-11-06T15:53:39.934Z,84.60
2018-11-06T15:56:11.123Z,84.60
2018-11-06T15:58:41.232Z,84.10
2018-11-06T16:01:11.410Z,84.90
2018-11-06T16:03:42.967Z,84.70
2018-11-06T16:06:13.308Z,84.60
2018-11-06T16:08:45.657Z,85.10
2018-11-06T16:11:19.092Z,85.90
2018-11-06T16:13:49.291Z,86.20
2018-11-06T16:16:19.436Z,86.80
2018-11-06T16:18:51.382Z,86.30
2018-11-06T16:21:21.852Z,86.60
2018-11-06T16:23:52.467Z,86.60
2018-11-06T16:26:22.693Z,86.80
2018-11-06T16:28:53.762Z,87.20
2018-11-06T16:31:24.616Z,86.80
2018-11-06T16:33:56.437Z,87.10
2018-11-06T16:36:27.732Z,86.60
2018-11-06T16:38:58.071Z,86.00
2018-11-06T16:41:28.251Z,87.10
2018-11-06T16:43:59.079Z,87.40
2018-11-06T16:46:29.836Z,87.50
2018-11-06T16:49:00.660Z,88.00
2018-11-06T16:51:31.791Z,87.10
2018-11-06T16:54:02.974Z,87.30
2018-11-06T16:56:33.278Z,86.90
2018-11-06T16:59:05.888Z,87.80
2018-11-06T17:01:36.631Z,88.00
2018-11-06T17:04:08.067Z,88.00
2018-11-06T17:06:45.282Z,87.70
2018-11-06T17:09:23.980Z,87.70
2018-11-06T17:11:54.714Z,87.40
2018-11-06T17:14:25.245Z,88.00
2018-11-06T17:16:57.556Z,87.90
2018-11-06T17:19:30.431Z,88.50
2018-11-06T17:22:02.102Z,89.20
2018-11-06T17:24:33.930Z,89.20
2018-11-06T17:27:04.368Z,89.80
2018-11-06T17:29:34.709Z,90.10
2018-11-06T17:32:06.109Z,90.40
2018-11-06T17:34:37.451Z,90.20
2018-11-06T17:37:11.075Z,90.20
2018-11-06T17:39:42.104Z,90.10
2018-11-06T17:42:14.184Z,89.50
2018-11-06T17:44:45.816Z,89.70
2018-11-06T17:47:18.003Z,89.30
2018-11-06T17:49:48.550Z,89.40
2018-11-06T17:52:18.979Z,89.20
2018-11-06T17:54:49.141Z,89.60
2018-11-06T17:57:20.968Z,89.50
2018-11-06T17:59:52.960Z,89.80
2018-11-06T18:02:23.496Z,89.50
2018-11-06T18:04:54.795Z,90.50
2018-11-06T18:07:25.046Z,90.20
2018-11-06T18:09:55.511Z,90.50
2018-11-06T18:12:26.630Z,90.60
2018-11-06T18:14:57.803Z,90.40
2018-11-06T18:17:29.648Z,90.50
2018-11-06T18:20:00.341Z,90.40
2018-11-06T18:22:31.839Z,90.10
2018-11-06T18:25:02.996Z,90.30
2018-11-06T18:27:33.311Z,90.40
2018-11-06T18:30:05.118Z,90.20
2018-11-06T18:32:35.519Z,90.20
2018-11-06T18:35:07.194Z,90.30
2018-11-06T18:37:37.632Z,90.20
2018-11-06T18:40:11.070Z,90.40
2018-11-06T18:42:42.637Z,90.20
2018-11-06T18:45:14.891Z,90.00
2018-11-06T18:47:47.347Z,89.60
2018-11-06T18:50:21.103Z,90.20
2018-11-06T18:52:52.376Z,90.10
2018-11-06T18:55:22.997Z,90.10
2018-11-06T18:57:55.027Z,90.20
2018-11-06T19:00:27.342Z,90.10
2018-11-06T19:02:59.159Z,90.40
2018-11-06T19:05:30.980Z,90.40
2018-11-06T19:08:02.128Z,90.60
2018-11-06T19:10:32.680Z,90.60
2018-11-06T19:13:03.320Z,90.50
2018-11-06T19:15:34.686Z,90.50
2018-11-06T19:18:07.694Z,90.30
2018-11-06T19:20:41.145Z,90.40
2018-11-06T19:23:13.726Z,90.60
2018-11-06T19:25:47.379Z,90.70
2018-11-06T19:28:18.542Z,91.10
2018-11-06T19:30:49.459Z,90.80
2018-11-06T19:33:22.704Z,91.40
2018-11-06T19:35:53.668Z,90.80
2018-11-06T19:38:25.240Z,91.00
2018-11-06T19:40:55.519Z,90.80
2018-11-06T19:43:26.622Z,90.90
2018-11-06T19:45:56.870Z,90.60
2018-11-06T19:48:30.599Z,90.90
2018-11-06T19:51:01.459Z,90.90
2018-11-06T19:53:32.078Z,91.10
2018-11-06T19:56:02.409Z,91.00
2018-11-06T19:58:35.594Z,91.00
2018-11-06T20:01:06.389Z,91.10
2018-11-06T20:03:37.769Z,91.40
2018-11-06T20:06:10.319Z,91.30
2018-11-06T20:08:41.838Z,91.50
2018-11-06T20:11:12.192Z,91.50
2018-11-06T20:13:42.303Z,91.30
2018-11-06T20:16:14.888Z,91.60
2018-11-06T20:18:47.590Z,91.30
2018-11-06T20:21:19.117Z,91.50
2018-11-06T20:23:50.414Z,91.70
2018-11-06T20:26:21.277Z,92.80
2018-11-06T20:28:52.702Z,93.50
2018-11-06T20:31:24.120Z,93.40
2018-11-06T20:33:57.289Z,92.90
2018-11-06T20:36:28.380Z,92.70
2018-11-06T20:39:00.122Z,92.70
2018-11-06T20:41:30.430Z,93.90
2018-11-06T20:44:01.545Z,93.40
2018-11-06T20:46:33.917Z,92.70
2018-11-06T20:49:04.901Z,92.80
2018-11-06T20:51:35.783Z,92.90
2018-11-06T20:54:07.065Z,92.90
2018-11-06T20:56:37.464Z,92.90
2018-11-06T20:59:10.763Z,92.70
2018-11-06T21:01:44.075Z,92.80
2018-11-06T21:04:18.309Z,92.90
2018-11-06T21:06:50.490Z,92.70
2018-11-06T21:09:21.664Z,92.60
2018-11-06T21:11:53.423Z,92.90
2018-11-06T21:14:23.775Z,92.90
2018-11-06T21:16:53.819Z,93.20
2018-11-06T21:19:25.300Z,93.40
2018-11-06T21:21:57.143Z,93.70
2018-11-06T21:24:28.412Z,94.00
2018-11-06T21:26:59.604Z,94.00
2018-11-06T21:29:29.837Z,94.60
2018-11-06T21:32:00.094Z,94.60
2018-11-06T21:34:30.471Z,94.20
2018-11-06T21:37:03.592Z,94.40
2018-11-06T21:39:33.840Z,94.20
2018-11-06T21:42:05.578Z,93.90
2018-11-06T21:44:37.559Z,93.90
2018-11-06T21:47:08.253Z,93.90
2018-11-06T21:49:38.470Z,93.70
2018-11-06T21:52:08.780Z,93.40
2018-11-06T21:54:39.597Z,93.20
2018-11-06T21:57:09.999Z,93.30
2018-11-06T21:59:40.256Z,93.30
2018-11-06T22:02:10.747Z,93.30
2018-11-06T22:04:42.200Z,93.30
2018-11-06T22:07:12.985Z,93.30
2018-11-06T22:09:43.226Z,92.90
2018-11-06T22:12:15.019Z,92.80
2018-11-06T22:14:49.231Z,92.80
2018-11-06T22:17:19.418Z,92.70
2018-11-06T22:19:50.747Z,92.60
2018-11-06T22:22:22.071Z,92.60
2018-11-06T22:24:52.851Z,92.70
2018-11-06T22:27:23.553Z,92.60
2018-11-06T22:29:54.091Z,92.60
2018-11-06T22:32:25.728Z,92.50
2018-11-06T22:34:55.803Z,92.40
2018-11-06T22:37:26.986Z,92.40
2018-11-06T22:39:57.869Z,92.30
2018-11-06T22:42:28.130Z,92.00
2018-11-06T22:44:58.554Z,92.00
2018-11-06T22:47:30.215Z,92.20
2018-11-06T22:50:01.879Z,92.40
2018-11-06T22:52:32.181Z,92.30
2018-11-06T22:55:03.410Z,92.10
2018-11-06T22:57:33.770Z,92.10
2018-11-06T23:00:10.945Z,92.20
2018-11-06T23:02:42.068Z,92.20
2018-11-06T23:05:14.283Z,92.00
2018-11-06T23:07:49.685Z,91.90
2018-11-06T23:10:19.826Z,92.30
2018-11-06T23:12:50.783Z,91.80
2018-11-06T23:15:21.045Z,92.00
2018-11-06T23:17:51.449Z,92.20
2018-11-06T23:20:21.622Z,91.90
2018-11-06T23:22:52.510Z,91.90
2018-11-06T23:25:23.548Z,92.50
2018-11-06T23:27:53.655Z,92.50
2018-11-06T23:30:25.047Z,92.50
2018-11-06T23:32:56.918Z,92.30
2018-11-06T23:35:27.722Z,92.30
2018-11-06T23:38:00.822Z,92.20
2018-11-06T23:40:33.248Z,92.20
2018-11-06T23:43:05.305Z,92.40
2018-11-06T23:45:38.825Z,92.50
2018-11-06T23:48:09.917Z,92.60
2018-11-06T23:50:41.047Z,92.50
2018-11-06T23:53:12.882Z,92.50
2018-11-06T23:55:44.195Z,92.60
2018-11-06T23:58:14.207Z,92.50
